Jersey Shore, PA

12:59 PM EDT on August 21, 2014 (GMT -0400)
W3TMB | Change Station
CLOSE
Current Station
Personal Weather Station
Location: Jersey Shore, PA
Elevation: 551 ft
Nearby Weather Stations

Elev 551 ft 41.21 °N, 77.26 °W | Updated 5 minutes ago

Scattered Clouds
Scattered Clouds
82.0 °F
Feels Like 94 °F
N
2.2
Wind Variable Wind from South

Today
High -- | Low -- °F
--% Chance of Precip.
Yesterday
High -- | Low -- °F
Precip. -- in
6:24 AM 7:59 PM
Waning Crescent, 13% visible
Pressure 29.99 in
Visibility 10.0 miles
Clouds Scattered Clouds 2500 ft
Heat Index 94 °F
Dew Point 81 °F
Humidity 98%
Rainfall 0.18 in
Snow Depth Not available.
UV 8 out of 12
Pollen 8.20 out of 12
Air Quality Not available.
Flu Activity Not available.
METAR KIPT 211654Z 00000KT 10SM SCT025 26/20 A3000 RMK AO2 LTG DSNT W SLP154 T02610200

More Conditions Fewer Conditions

Pressure 29.99 in
Visibility 10.0 miles
Clouds Scattered Clouds 2500 ft
Heat Index 94 °F
Dew Point 81 °F
Humidity 98%
Rainfall 0.18 in
Snow Depth Not available.
UV 8 out of 12
Pollen 8.20 out of 12
Air Quality Not available.
Flu Activity Not available.
METAR KIPT 211654Z 00000KT 10SM SCT025 26/20 A3000 RMK AO2 LTG DSNT W SLP154 T02610200

More Conditions Fewer Conditions

Nowcast | as of 12:40 PM EDT on August 21, 2014

Isolated showers and thunderstorms will develop across portions of the north central mountains and Lycoming River Valley this afternoon. Thunderstorms are not expected to be strong...but brief heavy downpours are possible. Winds gusts up to 25 mph may accompany any storms.

×

10-Day Weather Forecast

Almanac

Astronomy

Aug. 21, 2014 Rise Set
Actual Time 6:24 AM EDT 7:59 PM EDT
Civil Twilight 5:55 AM EDT 8:28 PM EDT
Nautical Twilight 5:20 AM EDT 9:03 PM EDT
Astronomical Twilight 4:42 AM EDT 9:40 PM EDT
Moon 2:52 AM EDT 5:27 PM EDT
Length of Visible Light 14h 32m
Length of Day
13h 34m
Tomorrow will be 2m 31s shorter.
Waning Crescent, 13% of the Moon is Illuminated
Today
Waning Crescent
Aug 25
New
Sep 2
First Quarter
Sep 8
Full
Sep 15
Last Quarter

Today's Extremes

State Highs State Lows

Community

WunderPhotos

Upload Photos

1,745,957 photos uploaded!

Nearby

Snow Depth

Station Depth Elevation
No new snow has been reported.

Earthquake Activity

City Distance Mag. Time & Date
No recent earthquake activity has been reported nearby.
Minimum magnitude displayed is 2.5.

Coastal Water Temperatures

Place Temperature
No Stations Reporting

Nearby Weather Stations